createdAt,value
2022-07-25T00:00:45.714Z,76.94
2022-07-25T00:03:14.085Z,76.68
2022-07-25T00:05:45.705Z,76.69
2022-07-25T00:08:12.710Z,76.88
2022-07-25T00:10:39.878Z,77.12
2022-07-25T00:13:06.872Z,76.89
2022-07-25T00:15:34.058Z,77.15
2022-07-25T00:18:01.575Z,77.25
2022-07-25T00:20:28.710Z,77.00
2022-07-25T00:22:55.689Z,77.33
2022-07-25T00:25:22.905Z,77.31
2022-07-25T00:27:50.102Z,77.16
2022-07-25T00:30:17.164Z,77.15
2022-07-25T00:32:44.113Z,77.32
2022-07-25T00:35:11.481Z,77.49
2022-07-25T00:37:38.448Z,77.54
2022-07-25T00:40:05.904Z,77.30
2022-07-25T00:42:33.478Z,77.45
2022-07-25T00:45:00.629Z,77.56
2022-07-25T00:47:27.644Z,77.41
2022-07-25T00:49:54.713Z,77.75
2022-07-25T00:52:21.823Z,77.54
2022-07-25T00:54:49.121Z,77.49
2022-07-25T00:57:16.108Z,77.54
2022-07-25T00:59:43.184Z,77.77
2022-07-25T01:02:10.449Z,77.60
2022-07-25T01:04:37.543Z,77.87
2022-07-25T01:07:04.722Z,77.66
2022-07-25T01:09:31.942Z,78.03
2022-07-25T01:11:58.924Z,78.04
2022-07-25T01:14:25.851Z,77.99
2022-07-25T01:16:52.944Z,78.06
2022-07-25T01:19:19.967Z,78.10
2022-07-25T01:21:47.072Z,78.16
2022-07-25T01:24:14.063Z,78.04
2022-07-25T01:26:41.302Z,78.13
2022-07-25T01:29:08.304Z,78.00
2022-07-25T01:31:35.533Z,77.80
2022-07-25T01:34:02.708Z,78.00
2022-07-25T01:36:29.912Z,77.97
2022-07-25T01:38:57.623Z,78.01
2022-07-25T01:41:24.631Z,78.07
2022-07-25T01:43:51.703Z,78.30
2022-07-25T01:46:18.892Z,78.34
2022-07-25T01:48:46.224Z,78.05
2022-07-25T01:51:13.500Z,78.23
2022-07-25T01:53:40.542Z,78.55
2022-07-25T01:56:10.982Z,78.35
2022-07-25T01:58:39.572Z,78.40
2022-07-25T02:01:06.744Z,78.40
2022-07-25T02:03:33.915Z,78.07
2022-07-25T02:06:03.533Z,78.15
2022-07-25T02:08:31.657Z,78.23
2022-07-25T02:10:58.944Z,78.15
2022-07-25T02:13:26.907Z,78.15
2022-07-25T02:15:54.293Z,78.18
2022-07-25T02:18:21.425Z,78.13
2022-07-25T02:20:48.548Z,78.14
2022-07-25T02:23:15.605Z,78.30
2022-07-25T02:25:42.624Z,78.26
2022-07-25T02:28:10.706Z,78.07
2022-07-25T02:30:38.146Z,78.17
2022-07-25T02:33:05.343Z,78.26
2022-07-25T02:35:32.307Z,78.21
2022-07-25T02:37:59.384Z,77.96
2022-07-25T02:40:26.665Z,77.97
2022-07-25T02:42:53.524Z,77.96
2022-07-25T02:45:20.633Z,78.05
2022-07-25T02:47:47.604Z,77.97
2022-07-25T02:50:15.209Z,77.84
2022-07-25T02:52:42.845Z,77.76
2022-07-25T02:55:10.750Z,78.10
2022-07-25T02:57:38.045Z,77.88
2022-07-25T03:00:07.164Z,77.82
2022-07-25T03:02:34.433Z,77.84
2022-07-25T03:05:01.532Z,78.03
2022-07-25T03:07:28.661Z,78.06
2022-07-25T03:09:55.784Z,77.73
2022-07-25T03:12:22.706Z,78.11
2022-07-25T03:14:49.804Z,77.50
2022-07-25T03:17:16.869Z,77.66
2022-07-25T03:19:43.984Z,77.33
2022-07-25T03:22:11.063Z,76.88
2022-07-25T03:24:38.164Z,76.64
2022-07-25T03:27:05.428Z,76.22
2022-07-25T03:29:32.405Z,75.89
2022-07-25T03:31:59.656Z,75.37
2022-07-25T03:34:26.684Z,74.83
2022-07-25T03:36:53.743Z,74.34
2022-07-25T03:39:20.828Z,74.21
2022-07-25T03:41:48.173Z,74.02
2022-07-25T03:44:15.205Z,74.03
2022-07-25T03:46:42.245Z,73.82
2022-07-25T03:49:09.374Z,73.73
2022-07-25T03:51:36.382Z,73.71
2022-07-25T03:54:04.658Z,73.47
2022-07-25T03:56:36.535Z,73.29
2022-07-25T03:59:13.065Z,73.21
2022-07-25T04:01:40.161Z,73.12
2022-07-25T04:04:08.268Z,73.12
2022-07-25T04:06:35.696Z,73.27
2022-07-25T04:09:02.906Z,73.23
2022-07-25T04:11:31.011Z,73.10
2022-07-25T04:13:58.497Z,73.07
2022-07-25T04:16:25.727Z,73.05
2022-07-25T04:18:55.299Z,73.10
2022-07-25T04:21:24.380Z,73.07
2022-07-25T04:23:51.725Z,73.15
2022-07-25T04:26:19.064Z,73.18
2022-07-25T04:28:46.312Z,73.29
2022-07-25T04:31:13.277Z,73.25
2022-07-25T04:33:40.607Z,73.28
2022-07-25T04:36:08.023Z,73.22
2022-07-25T04:38:35.581Z,73.32
2022-07-25T04:41:03.623Z,73.26
2022-07-25T04:43:30.742Z,73.30
2022-07-25T04:45:57.792Z,73.19
2022-07-25T04:48:24.972Z,73.21
2022-07-25T04:50:52.601Z,73.32
2022-07-25T04:53:19.804Z,73.08
2022-07-25T04:55:46.871Z,73.10
2022-07-25T04:58:13.884Z,73.10
2022-07-25T05:00:42.008Z,72.72
2022-07-25T05:03:09.085Z,72.76
2022-07-25T05:05:36.237Z,72.55
2022-07-25T05:08:03.903Z,72.37
2022-07-25T05:10:31.091Z,71.84
2022-07-25T05:12:58.657Z,71.56
2022-07-25T05:15:25.999Z,71.20
2022-07-25T05:17:53.170Z,70.80
2022-07-25T05:20:20.293Z,70.58
2022-07-25T05:22:47.419Z,70.22
2022-07-25T05:25:14.843Z,70.02
2022-07-25T05:27:42.276Z,69.67
2022-07-25T05:30:11.273Z,69.31
2022-07-25T05:32:38.962Z,68.99
2022-07-25T05:35:08.064Z,68.67
2022-07-25T05:37:36.149Z,68.44
2022-07-25T05:40:04.790Z,68.13
2022-07-25T05:42:31.903Z,67.49
2022-07-25T05:44:58.887Z,67.54
2022-07-25T05:47:25.969Z,67.18
2022-07-25T05:49:52.902Z,66.65
2022-07-25T05:52:19.851Z,66.44
2022-07-25T05:54:46.825Z,66.24
2022-07-25T05:57:13.908Z,66.05
2022-07-25T05:59:41.114Z,65.82
2022-07-25T06:02:08.534Z,65.50
2022-07-25T06:04:35.713Z,64.81
2022-07-25T06:07:02.980Z,64.79
2022-07-25T06:09:32.369Z,64.33
2022-07-25T06:12:01.033Z,63.97
2022-07-25T06:14:29.279Z,63.61
2022-07-25T06:16:57.022Z,63.07
2022-07-25T06:19:24.088Z,62.91
2022-07-25T06:21:51.302Z,62.46
2022-07-25T06:24:18.481Z,62.07
2022-07-25T06:26:45.660Z,61.88
2022-07-25T06:29:12.723Z,61.59
2022-07-25T06:31:40.097Z,61.00
2022-07-25T06:34:07.719Z,60.74
2022-07-25T06:36:35.350Z,60.29
2022-07-25T06:39:02.706Z,60.19
2022-07-25T06:41:29.805Z,59.77
2022-07-25T06:43:56.846Z,59.80
2022-07-25T06:46:23.997Z,59.27
2022-07-25T06:48:51.204Z,59.13
2022-07-25T06:51:18.282Z,58.89
2022-07-25T06:53:45.338Z,58.39
2022-07-25T06:56:17.577Z,58.26
2022-07-25T06:58:45.013Z,57.95
2022-07-25T07:01:12.372Z,57.48
2022-07-25T07:03:40.537Z,57.42
2022-07-25T07:06:12.031Z,57.03
2022-07-25T07:08:39.125Z,56.63
2022-07-25T07:11:06.540Z,56.23
2022-07-25T07:13:33.976Z,55.85
2022-07-25T07:16:02.183Z,55.56
2022-07-25T07:18:29.379Z,55.18
2022-07-25T07:20:56.419Z,55.11
2022-07-25T07:23:24.541Z,54.72
2022-07-25T07:25:51.978Z,54.67
2022-07-25T07:28:20.461Z,53.98
2022-07-25T07:33:34.563Z,53.46
2022-07-25T07:36:02.408Z,53.08
2022-07-25T07:38:29.659Z,52.67
2022-07-25T07:40:56.773Z,52.28
2022-07-25T07:43:29.376Z,52.12
2022-07-25T07:46:01.375Z,51.83
2022-07-25T07:48:29.769Z,51.40
2022-07-25T07:50:57.381Z,51.33
2022-07-25T07:53:44.341Z,51.05
2022-07-25T07:56:12.303Z,50.88
2022-07-25T07:58:39.390Z,50.23
2022-07-25T08:01:07.157Z,50.02
2022-07-25T08:03:34.260Z,49.80
2022-07-25T08:06:01.300Z,49.96
2022-07-25T08:08:31.345Z,49.54
2022-07-25T08:10:59.773Z,49.28
2022-07-25T08:13:33.201Z,48.79
2022-07-25T08:16:03.777Z,48.70
2022-07-25T08:18:34.911Z,48.65
2022-07-25T08:21:06.624Z,48.19
2022-07-25T08:23:35.546Z,47.95
2022-07-25T08:26:04.072Z,47.67
2022-07-25T08:28:31.687Z,47.42
2022-07-25T08:30:59.265Z,47.06
2022-07-25T08:33:26.646Z,47.10
2022-07-25T08:35:55.140Z,46.76
2022-07-25T08:38:24.221Z,46.57
2022-07-25T08:40:51.821Z,46.53
2022-07-25T08:43:19.662Z,46.26
2022-07-25T08:45:51.510Z,46.09
2022-07-25T08:48:23.745Z,45.78
2022-07-25T08:50:51.759Z,45.67
2022-07-25T08:53:36.089Z,45.26
2022-07-25T08:56:15.999Z,45.37
2022-07-25T08:58:44.839Z,44.95
2022-07-25T09:01:13.063Z,45.06
2022-07-25T09:03:40.508Z,44.94
2022-07-25T09:06:16.021Z,44.81
2022-07-25T09:08:53.240Z,44.44
2022-07-25T09:11:47.061Z,44.22
2022-07-25T09:14:15.161Z,43.86
2022-07-25T09:16:45.175Z,43.68
2022-07-25T09:19:20.439Z,43.63
2022-07-25T09:22:06.999Z,43.69
2022-07-25T09:24:37.581Z,43.50
2022-07-25T09:27:12.858Z,43.38
2022-07-25T09:29:40.882Z,43.35
2022-07-25T09:32:16.900Z,43.34
2022-07-25T09:34:46.060Z,43.31
2022-07-25T09:37:15.148Z,43.04
2022-07-25T09:39:46.800Z,42.77
2022-07-25T09:42:33.179Z,42.39
2022-07-25T09:45:13.464Z,42.36
2022-07-25T09:47:58.454Z,42.11
2022-07-25T09:50:28.038Z,42.38
2022-07-25T09:52:57.160Z,42.17
2022-07-25T09:55:24.983Z,41.87
2022-07-25T09:57:55.244Z,42.02
2022-07-25T10:00:25.370Z,41.97
2022-07-25T10:02:55.574Z,41.88
2022-07-25T10:05:45.765Z,41.83
2022-07-25T10:08:13.022Z,41.87
2022-07-25T10:10:41.606Z,41.84
2022-07-25T10:13:15.497Z,41.56
2022-07-25T10:15:50.504Z,41.78
2022-07-25T10:18:19.989Z,41.74
2022-07-25T10:20:48.545Z,41.47
2022-07-25T10:23:18.622Z,41.23
2022-07-25T10:25:48.927Z,41.32
2022-07-25T10:28:19.402Z,41.29
2022-07-25T10:30:46.759Z,41.23
2022-07-25T10:33:21.548Z,40.94
2022-07-25T10:35:48.760Z,40.55
2022-07-25T10:38:24.964Z,40.16
2022-07-25T10:40:52.283Z,39.89
2022-07-25T10:43:21.369Z,40.07
2022-07-25T10:45:54.418Z,39.96
2022-07-25T10:48:27.460Z,40.10
2022-07-25T10:51:01.940Z,39.97
2022-07-25T10:53:55.060Z,39.71
2022-07-25T10:56:28.019Z,39.76
2022-07-25T10:59:01.862Z,39.69
2022-07-25T11:01:34.395Z,39.64
2022-07-25T11:04:04.580Z,39.40
2022-07-25T11:06:34.320Z,39.40
2022-07-25T11:09:02.374Z,39.55
2022-07-25T11:11:37.450Z,39.21
2022-07-25T11:14:05.814Z,38.86
2022-07-25T11:16:33.127Z,38.92
2022-07-25T11:19:00.200Z,38.88
2022-07-25T11:21:27.320Z,38.66
2022-07-25T11:23:54.401Z,38.69
2022-07-25T11:26:21.437Z,38.37
2022-07-25T11:28:50.142Z,38.31
2022-07-25T11:31:18.895Z,38.62
2022-07-25T11:33:47.948Z,38.53
2022-07-25T11:36:15.384Z,38.01
2022-07-25T11:38:42.779Z,38.27
2022-07-25T11:41:10.079Z,37.98
2022-07-25T11:43:37.421Z,38.29
2022-07-25T11:46:07.757Z,38.09
2022-07-25T11:48:40.406Z,38.17
2022-07-25T11:51:19.162Z,37.94
2022-07-25T11:53:51.487Z,37.91
2022-07-25T11:56:41.980Z,37.51
2022-07-25T11:59:10.815Z,37.77
2022-07-25T12:01:42.380Z,37.47
2022-07-25T12:04:17.961Z,37.33
2022-07-25T12:06:47.373Z,37.56
2022-07-25T12:09:21.942Z,37.62
2022-07-25T12:11:49.841Z,37.53
2022-07-25T12:14:17.218Z,37.07
2022-07-25T12:16:44.579Z,37.47
2022-07-25T12:19:19.825Z,37.29
2022-07-25T12:21:47.382Z,37.48
2022-07-25T12:24:14.421Z,37.00
2022-07-25T12:26:41.742Z,36.86
2022-07-25T12:29:09.288Z,36.83
2022-07-25T12:31:36.801Z,37.13
2022-07-25T12:34:04.179Z,36.85
2022-07-25T12:36:31.264Z,36.47
2022-07-25T12:38:58.339Z,36.55
2022-07-25T12:41:25.559Z,36.45
2022-07-25T12:43:52.622Z,36.80
2022-07-25T12:46:19.907Z,36.74
2022-07-25T12:48:47.226Z,36.71
2022-07-25T12:51:14.360Z,36.49
2022-07-25T12:53:42.609Z,36.68
2022-07-25T12:56:10.061Z,36.26
2022-07-25T12:58:37.639Z,36.51
2022-07-25T13:01:06.389Z,36.39
2022-07-25T13:03:33.699Z,36.37
2022-07-25T13:06:00.860Z,36.07
2022-07-25T13:08:28.019Z,36.10
2022-07-25T13:10:55.160Z,36.11
2022-07-25T13:13:22.245Z,36.44
2022-07-25T13:15:49.563Z,36.39
2022-07-25T13:18:16.622Z,36.25
2022-07-25T13:20:43.743Z,36.17
2022-07-25T13:23:10.841Z,36.16
2022-07-25T13:25:38.024Z,36.02
2022-07-25T13:28:08.619Z,35.54
2022-07-25T13:30:38.661Z,35.66
2022-07-25T13:33:05.860Z,35.85
2022-07-25T13:35:38.768Z,35.43
2022-07-25T13:38:06.305Z,35.82
2022-07-25T13:40:33.843Z,35.56
2022-07-25T13:43:00.831Z,35.51
2022-07-25T13:45:27.934Z,35.71
2022-07-25T13:48:18.950Z,35.57
2022-07-25T13:50:42.281Z,35.56
2022-07-25T13:53:09.463Z,35.66
2022-07-25T13:55:38.200Z,35.54
2022-07-25T13:58:05.291Z,35.08
2022-07-25T14:00:32.366Z,35.53
2022-07-25T14:02:59.481Z,35.53
2022-07-25T14:05:27.106Z,35.48
2022-07-25T14:07:54.962Z,35.15
2022-07-25T14:10:22.262Z,35.54
2022-07-25T14:12:50.035Z,35.62
2022-07-25T14:15:17.780Z,35.71
2022-07-25T14:17:44.998Z,35.37
2022-07-25T14:20:13.160Z,35.64
2022-07-25T14:22:42.300Z,35.97
2022-07-25T14:25:10.640Z,35.87
2022-07-25T14:27:38.539Z,35.67
2022-07-25T14:30:07.102Z,36.09
2022-07-25T14:32:34.260Z,35.63
2022-07-25T14:35:02.664Z,36.01
2022-07-25T14:37:31.660Z,35.86
2022-07-25T14:39:59.434Z,35.64
2022-07-25T14:42:26.513Z,35.35
2022-07-25T14:44:53.633Z,35.59
2022-07-25T14:47:22.326Z,35.79
2022-07-25T14:49:50.150Z,35.75
2022-07-25T14:52:17.533Z,35.37
2022-07-25T14:54:44.861Z,35.78
2022-07-25T14:57:12.121Z,35.88
2022-07-25T14:59:39.381Z,35.66
2022-07-25T15:02:06.743Z,35.53
2022-07-25T15:04:34.054Z,35.54
2022-07-25T15:07:01.322Z,35.88
2022-07-25T15:09:28.489Z,35.62
2022-07-25T15:11:55.475Z,35.71
2022-07-25T15:14:22.451Z,35.64
2022-07-25T15:16:49.520Z,35.39
2022-07-25T15:19:17.357Z,35.37
2022-07-25T15:21:45.585Z,35.44
2022-07-25T15:24:13.743Z,35.33
2022-07-25T15:26:40.723Z,35.54
2022-07-25T15:29:09.835Z,35.61
2022-07-25T15:31:37.392Z,35.83
2022-07-25T15:34:04.521Z,35.84
2022-07-25T15:36:31.603Z,35.70
2022-07-25T15:38:58.552Z,35.60
2022-07-25T15:41:26.730Z,35.74
2022-07-25T15:43:53.853Z,35.85
2022-07-25T15:46:20.949Z,35.89
2022-07-25T15:48:48.921Z,35.94
2022-07-25T15:51:17.036Z,35.71
2022-07-25T15:53:44.142Z,35.54
2022-07-25T15:56:13.804Z,35.32
2022-07-25T15:58:40.977Z,35.45
2022-07-25T16:01:08.341Z,35.26
2022-07-25T16:03:35.866Z,35.29
2022-07-25T16:06:04.765Z,35.34
2022-07-25T16:08:32.441Z,35.44
2022-07-25T16:11:00.301Z,35.52
2022-07-25T16:13:27.520Z,35.38
2022-07-25T16:15:54.888Z,35.50
2022-07-25T16:18:22.601Z,35.24
2022-07-25T16:20:49.780Z,35.26
2022-07-25T16:23:16.887Z,35.29
2022-07-25T16:25:44.162Z,35.13
2022-07-25T16:28:11.281Z,35.44
2022-07-25T16:30:38.489Z,35.42
2022-07-25T16:33:05.921Z,35.25
2022-07-25T16:35:33.232Z,35.31
2022-07-25T16:38:00.744Z,35.22
2022-07-25T16:40:30.943Z,35.10
2022-07-25T16:42:59.414Z,35.03
2022-07-25T16:45:27.068Z,34.97
2022-07-25T16:47:54.225Z,35.14
2022-07-25T16:50:21.553Z,35.03
2022-07-25T16:52:48.762Z,35.33
2022-07-25T16:55:16.453Z,35.20
2022-07-25T16:57:43.495Z,35.27
2022-07-25T17:00:11.331Z,35.20
2022-07-25T17:02:40.724Z,35.24
2022-07-25T17:05:08.305Z,35.17
2022-07-25T17:07:35.680Z,35.32
2022-07-25T17:10:03.385Z,35.56
2022-07-25T17:12:30.488Z,35.42
2022-07-25T17:14:57.801Z,35.56
2022-07-25T17:17:24.888Z,35.47
2022-07-25T17:19:56.562Z,35.66
2022-07-25T17:22:26.701Z,35.90
2022-07-25T17:24:53.908Z,35.87
2022-07-25T17:27:21.221Z,35.93
2022-07-25T17:29:48.379Z,36.30
2022-07-25T17:32:15.572Z,36.21
2022-07-25T17:34:42.790Z,36.15
2022-07-25T17:37:10.485Z,36.49
2022-07-25T17:39:37.988Z,36.54
2022-07-25T17:42:07.814Z,36.33
2022-07-25T17:44:35.323Z,36.37
2022-07-25T17:47:03.551Z,36.33
2022-07-25T17:49:31.000Z,36.40
2022-07-25T17:51:57.991Z,36.37
2022-07-25T17:54:25.264Z,36.84
2022-07-25T17:56:52.512Z,36.83
2022-07-25T17:59:19.535Z,36.83
2022-07-25T18:01:46.661Z,36.98
2022-07-25T18:04:14.574Z,37.32
2022-07-25T18:06:41.841Z,37.72
2022-07-25T18:09:08.857Z,37.67
2022-07-25T18:11:36.056Z,37.94
2022-07-25T18:14:03.044Z,38.44
2022-07-25T18:16:30.175Z,38.29
2022-07-25T18:18:57.386Z,38.80
2022-07-25T18:21:24.571Z,38.92
2022-07-25T18:23:52.253Z,39.16
2022-07-25T18:26:19.640Z,39.31
2022-07-25T18:28:46.903Z,39.53
2022-07-25T18:31:14.045Z,40.04
2022-07-25T18:33:41.596Z,40.25
2022-07-25T18:36:08.955Z,40.50
2022-07-25T18:38:36.250Z,40.64
2022-07-25T18:41:26.816Z,40.99
2022-07-25T18:43:51.731Z,40.99
2022-07-25T18:46:18.993Z,41.27
2022-07-25T18:48:46.177Z,41.73
2022-07-25T18:51:13.569Z,41.97
2022-07-25T18:53:44.762Z,41.93
2022-07-25T18:56:14.694Z,42.20
2022-07-25T18:58:41.644Z,42.38
2022-07-25T19:01:09.497Z,42.67
2022-07-25T19:03:37.728Z,42.75
2022-07-25T19:06:05.604Z,42.99
2022-07-25T19:08:33.046Z,43.15
2022-07-25T19:11:00.684Z,43.40
2022-07-25T19:13:48.209Z,43.43
2022-07-25T19:16:15.883Z,43.77
2022-07-25T19:18:43.082Z,43.96
2022-07-25T19:21:11.374Z,43.79
2022-07-25T19:23:38.379Z,44.45
2022-07-25T19:26:06.483Z,44.49
2022-07-25T19:28:35.818Z,44.39
2022-07-25T19:31:02.873Z,44.71
2022-07-25T19:33:34.804Z,45.06
2022-07-25T19:36:04.225Z,44.89
2022-07-25T19:38:31.571Z,45.27
2022-07-25T19:40:59.141Z,45.49
2022-07-25T19:43:26.445Z,45.75
2022-07-25T19:45:54.137Z,45.90
2022-07-25T19:48:24.096Z,45.84
2022-07-25T19:50:52.375Z,45.96
2022-07-25T19:53:25.348Z,46.18
2022-07-25T19:55:55.236Z,46.26
2022-07-25T19:58:22.460Z,46.36
2022-07-25T20:00:49.716Z,46.55
2022-07-25T20:03:17.200Z,46.54
2022-07-25T20:05:52.279Z,46.56
2022-07-25T20:08:19.708Z,46.68
2022-07-25T20:10:48.455Z,46.83
2022-07-25T20:13:16.287Z,46.64
2022-07-25T20:15:43.623Z,46.89
2022-07-25T20:18:12.927Z,47.22
2022-07-25T20:20:45.159Z,47.08
2022-07-25T20:23:12.402Z,47.48
2022-07-25T20:25:39.747Z,47.51
2022-07-25T20:28:07.271Z,47.72
2022-07-25T20:30:35.278Z,48.01
2022-07-25T20:33:07.971Z,48.13
2022-07-25T20:35:38.124Z,48.05
2022-07-25T20:38:09.057Z,48.14
2022-07-25T20:40:46.453Z,48.50
2022-07-25T20:43:15.603Z,48.60
2022-07-25T20:45:42.859Z,48.50
2022-07-25T20:48:10.266Z,48.97
2022-07-25T20:50:37.893Z,48.76
2022-07-25T20:53:06.166Z,48.98
2022-07-25T20:55:34.039Z,49.13
2022-07-25T20:58:01.460Z,49.41
2022-07-25T21:00:29.169Z,49.44
2022-07-25T21:02:57.183Z,49.38
2022-07-25T21:05:24.575Z,49.73
2022-07-25T21:07:51.761Z,49.62
2022-07-25T21:10:19.189Z,49.44
2022-07-25T21:12:46.605Z,49.57
2022-07-25T21:15:13.757Z,49.73
2022-07-25T21:17:41.904Z,49.86
2022-07-25T21:20:11.082Z,49.67
2022-07-25T21:22:38.225Z,50.03
2022-07-25T21:25:06.018Z,49.96
2022-07-25T21:27:33.225Z,50.08
2022-07-25T21:30:00.377Z,49.92
2022-07-25T21:32:27.421Z,50.22
2022-07-25T21:34:54.885Z,50.12
2022-07-25T21:37:21.824Z,49.96
2022-07-25T21:39:49.064Z,50.11
2022-07-25T21:42:16.062Z,50.15
2022-07-25T21:44:44.547Z,49.91
2022-07-25T21:47:12.114Z,50.34
2022-07-25T21:49:57.991Z,50.15
2022-07-25T21:52:30.062Z,50.13
2022-07-25T21:55:04.047Z,49.91
2022-07-25T21:57:31.592Z,50.00
2022-07-25T21:59:58.673Z,50.14
2022-07-25T22:05:11.736Z,50.01
2022-07-25T22:07:39.152Z,50.18
2022-07-25T22:10:08.289Z,50.04
2022-07-25T22:12:35.372Z,50.26
2022-07-25T22:15:02.554Z,50.11
2022-07-25T22:17:48.540Z,50.16
2022-07-25T22:20:16.800Z,50.01
2022-07-25T22:22:44.049Z,49.79
2022-07-25T22:25:11.193Z,49.87
2022-07-25T22:27:38.391Z,49.88
2022-07-25T22:30:06.233Z,50.04
2022-07-25T22:32:33.572Z,49.89
2022-07-25T22:35:00.808Z,49.95
2022-07-25T22:37:27.895Z,50.01
2022-07-25T22:40:01.287Z,49.74
2022-07-25T22:42:28.757Z,49.91
2022-07-25T22:44:55.815Z,50.04
2022-07-25T22:47:22.943Z,49.96
2022-07-25T22:49:50.113Z,50.11
2022-07-25T22:52:17.111Z,50.14
2022-07-25T22:54:44.336Z,49.83
2022-07-25T22:57:11.290Z,49.73
2022-07-25T22:59:38.432Z,50.02
2022-07-25T23:02:05.536Z,50.14
2022-07-25T23:04:32.689Z,49.81
2022-07-25T23:06:59.732Z,49.96
2022-07-25T23:09:33.751Z,50.05
2022-07-25T23:12:04.840Z,49.91
2022-07-25T23:17:17.374Z,49.94
2022-07-25T23:22:15.502Z,50.19
2022-07-25T23:24:42.979Z,49.58
2022-07-25T23:27:10.593Z,49.77
2022-07-25T23:29:37.940Z,50.04
2022-07-25T23:32:05.643Z,50.13
2022-07-25T23:34:33.372Z,49.72
2022-07-25T23:37:01.615Z,49.98
2022-07-25T23:41:55.683Z,49.87
2022-07-25T23:47:10.150Z,50.09
2022-07-25T23:49:38.371Z,50.14
2022-07-25T23:52:05.533Z,50.34
2022-07-25T23:54:35.043Z,50.15
2022-07-25T23:57:03.057Z,50.48
2022-07-25T23:59:30.063Z,50.60
